sensor_id;sensor_type;location;lat;lon;timestamp;pressure;altitude;pressure_sealevel;temperature;humidity
64841;BME280;51307;52.162;7.560;2023-04-12T00:01:06;100200.31;;;10.70;44.71
64841;BME280;51307;52.162;7.560;2023-04-12T00:03:32;100196.66;;;10.86;44.20
64841;BME280;51307;52.162;7.560;2023-04-12T00:06:01;100194.78;;;10.71;44.59
64841;BME280;51307;52.162;7.560;2023-04-12T00:08:28;100188.38;;;10.81;44.22
64841;BME280;51307;52.162;7.560;2023-04-12T00:11:02;100179.97;;;10.84;44.12
64841;BME280;51307;52.162;7.560;2023-04-12T00:13:28;100174.63;;;10.84;44.11
64841;BME280;51307;52.162;7.560;2023-04-12T00:15:54;100177.72;;;10.72;44.43
64841;BME280;51307;52.162;7.560;2023-04-12T00:18:20;100169.16;;;10.77;44.68
64841;BME280;51307;52.162;7.560;2023-04-12T00:20:53;100166.97;;;10.81;44.69
64841;BME280;51307;52.162;7.560;2023-04-12T00:23:19;100162.97;;;10.76;44.77
64841;BME280;51307;52.162;7.560;2023-04-12T00:25:44;100159.50;;;10.68;45.03
64841;BME280;51307;52.162;7.560;2023-04-12T00:28:10;100153.44;;;10.74;45.00
64841;BME280;51307;52.162;7.560;2023-04-12T00:30:36;100157.81;;;10.67;45.24
64841;BME280;51307;52.162;7.560;2023-04-12T00:33:01;100145.03;;;10.54;45.55
64841;BME280;51307;52.162;7.560;2023-04-12T00:35:27;100143.63;;;10.66;45.22
64841;BME280;51307;52.162;7.560;2023-04-12T00:37:52;100148.16;;;10.66;45.15
64841;BME280;51307;52.162;7.560;2023-04-12T00:40:19;100141.06;;;10.50;45.62
64841;BME280;51307;52.162;7.560;2023-04-12T00:42:44;100131.31;;;10.57;45.67
64841;BME280;51307;52.162;7.560;2023-04-12T00:45:10;100120.69;;;10.72;45.15
64841;BME280;51307;52.162;7.560;2023-04-12T00:47:36;100119.44;;;10.59;45.58
64841;BME280;51307;52.162;7.560;2023-04-12T00:50:03;100110.97;;;10.48;45.77
64841;BME280;51307;52.162;7.560;2023-04-12T00:52:32;100103.88;;;10.63;45.49
64841;BME280;51307;52.162;7.560;2023-04-12T00:55:08;100107.84;;;10.67;45.29
64841;BME280;51307;52.162;7.560;2023-04-12T00:57:36;100100.75;;;10.74;44.89
64841;BME280;51307;52.162;7.560;2023-04-12T01:00:07;100088.25;;;10.67;45.11
64841;BME280;51307;52.162;7.560;2023-04-12T01:02:35;100084.03;;;10.96;44.48
64841;BME280;51307;52.162;7.560;2023-04-12T01:05:04;100082.63;;;10.62;45.48
64841;BME280;51307;52.162;7.560;2023-04-12T01:07:34;100074.66;;;10.76;44.95
64841;BME280;51307;52.162;7.560;2023-04-12T01:13:23;100079.47;;;10.58;45.26
64841;BME280;51307;52.162;7.560;2023-04-12T01:15:58;100068.78;;;10.81;44.79
64841;BME280;51307;52.162;7.560;2023-04-12T01:18:29;100052.84;;;10.65;44.81
64841;BME280;51307;52.162;7.560;2023-04-12T01:21:13;100055.03;;;10.61;44.88
64841;BME280;51307;52.162;7.560;2023-04-12T01:26:35;100043.44;;;10.69;44.98
64841;BME280;51307;52.162;7.560;2023-04-12T01:29:11;100044.28;;;10.69;44.53
64841;BME280;51307;52.162;7.560;2023-04-12T01:31:50;100032.41;;;10.49;45.02
64841;BME280;51307;52.162;7.560;2023-04-12T01:34:19;100029.59;;;10.65;44.86
64841;BME280;51307;52.162;7.560;2023-04-12T01:36:47;100018.53;;;10.45;45.12
64841;BME280;51307;52.162;7.560;2023-04-12T01:39:13;100014.53;;;10.64;44.66
64841;BME280;51307;52.162;7.560;2023-04-12T01:41:40;100014.09;;;10.60;44.75
64841;BME280;51307;52.162;7.560;2023-04-12T01:44:06;100011.13;;;10.55;44.73
64841;BME280;51307;52.162;7.560;2023-04-12T01:46:32;100006.47;;;10.49;45.16
64841;BME280;51307;52.162;7.560;2023-04-12T01:48:59;100019.91;;;10.64;44.60
64841;BME280;51307;52.162;7.560;2023-04-12T01:54:14;100008.63;;;10.54;45.08
64841;BME280;51307;52.162;7.560;2023-04-12T01:56:49;99999.94;;;10.52;44.88
64841;BME280;51307;52.162;7.560;2023-04-12T01:59:19;99988.41;;;10.51;45.16
64841;BME280;51307;52.162;7.560;2023-04-12T02:01:50;99986.31;;;10.38;45.39
64841;BME280;51307;52.162;7.560;2023-04-12T02:04:18;99983.56;;;10.55;45.02
64841;BME280;51307;52.162;7.560;2023-04-12T02:06:45;99979.28;;;10.46;45.28
64841;BME280;51307;52.162;7.560;2023-04-12T02:09:11;99974.06;;;10.44;45.46
64841;BME280;51307;52.162;7.560;2023-04-12T02:11:37;99976.63;;;10.37;45.92
64841;BME280;51307;52.162;7.560;2023-04-12T02:14:03;99974.50;;;10.56;45.26
64841;BME280;51307;52.162;7.560;2023-04-12T02:16:28;99959.53;;;10.47;45.69
64841;BME280;51307;52.162;7.560;2023-04-12T02:18:54;99960.81;;;10.51;45.59
64841;BME280;51307;52.162;7.560;2023-04-12T02:21:23;99951.78;;;10.52;45.42
64841;BME280;51307;52.162;7.560;2023-04-12T02:23:49;99943.44;;;10.55;45.36
64841;BME280;51307;52.162;7.560;2023-04-12T02:26:14;99937.78;;;10.50;45.49
64841;BME280;51307;52.162;7.560;2023-04-12T02:28:40;99926.16;;;10.34;45.87
64841;BME280;51307;52.162;7.560;2023-04-12T02:31:06;99921.84;;;10.56;45.88
64841;BME280;51307;52.162;7.560;2023-04-12T02:33:32;99907.38;;;10.42;46.34
64841;BME280;51307;52.162;7.560;2023-04-12T02:35:59;99910.38;;;10.48;46.16
64841;BME280;51307;52.162;7.560;2023-04-12T02:38:27;99906.38;;;10.43;46.27
64841;BME280;51307;52.162;7.560;2023-04-12T02:40:53;99908.56;;;10.48;46.91
64841;BME280;51307;52.162;7.560;2023-04-12T02:43:20;99892.50;;;10.48;46.86
64841;BME280;51307;52.162;7.560;2023-04-12T02:45:46;99891.91;;;10.38;47.42
64841;BME280;51307;52.162;7.560;2023-04-12T02:48:12;99888.78;;;10.49;47.45
64841;BME280;51307;52.162;7.560;2023-04-12T02:50:37;99886.84;;;10.43;47.58
64841;BME280;51307;52.162;7.560;2023-04-12T02:53:03;99875.66;;;10.39;47.53
64841;BME280;51307;52.162;7.560;2023-04-12T02:55:28;99864.91;;;10.09;48.63
64841;BME280;51307;52.162;7.560;2023-04-12T02:57:55;99875.03;;;10.14;47.79
64841;BME280;51307;52.162;7.560;2023-04-12T03:00:22;99867.34;;;10.34;47.33
64841;BME280;51307;52.162;7.560;2023-04-12T03:02:48;99856.25;;;10.22;47.87
64841;BME280;51307;52.162;7.560;2023-04-12T03:05:17;99856.72;;;10.26;47.59
64841;BME280;51307;52.162;7.560;2023-04-12T03:07:43;99852.31;;;10.33;47.42
64841;BME280;51307;52.162;7.560;2023-04-12T03:10:09;99847.72;;;10.27;47.72
64841;BME280;51307;52.162;7.560;2023-04-12T03:12:38;99842.38;;;10.27;47.57
64841;BME280;51307;52.162;7.560;2023-04-12T03:15:04;99833.72;;;10.02;48.37
64841;BME280;51307;52.162;7.560;2023-04-12T03:17:29;99825.75;;;10.17;48.21
64841;BME280;51307;52.162;7.560;2023-04-12T03:19:55;99816.06;;;10.16;48.24
64841;BME280;51307;52.162;7.560;2023-04-12T03:22:22;99812.75;;;10.14;48.34
64841;BME280;51307;52.162;7.560;2023-04-12T03:24:49;99803.16;;;10.19;48.18
64841;BME280;51307;52.162;7.560;2023-04-12T03:27:16;99801.56;;;10.10;48.43
64841;BME280;51307;52.162;7.560;2023-04-12T03:29:41;99796.13;;;10.03;48.53
64841;BME280;51307;52.162;7.560;2023-04-12T03:32:07;99793.75;;;10.08;48.45
64841;BME280;51307;52.162;7.560;2023-04-12T03:34:32;99788.97;;;10.19;48.21
64841;BME280;51307;52.162;7.560;2023-04-12T03:37:01;99778.16;;;9.97;49.04
64841;BME280;51307;52.162;7.560;2023-04-12T03:39:27;99770.63;;;10.16;48.71
64841;BME280;51307;52.162;7.560;2023-04-12T03:41:53;99763.44;;;10.31;48.34
64841;BME280;51307;52.162;7.560;2023-04-12T03:44:18;99758.63;;;10.12;48.95
64841;BME280;51307;52.162;7.560;2023-04-12T03:46:44;99740.19;;;10.17;48.80
64841;BME280;51307;52.162;7.560;2023-04-12T03:49:10;99733.84;;;10.03;49.34
64841;BME280;51307;52.162;7.560;2023-04-12T03:51:36;99729.78;;;10.07;49.50
64841;BME280;51307;52.162;7.560;2023-04-12T03:54:08;99721.78;;;10.07;49.37
64841;BME280;51307;52.162;7.560;2023-04-12T03:56:33;99712.75;;;10.08;49.64
64841;BME280;51307;52.162;7.560;2023-04-12T03:58:59;99696.44;;;10.03;49.95
64841;BME280;51307;52.162;7.560;2023-04-12T04:01:25;99689.88;;;10.05;49.89
64841;BME280;51307;52.162;7.560;2023-04-12T04:03:50;99698.31;;;9.79;50.83
64841;BME280;51307;52.162;7.560;2023-04-12T04:06:16;99693.28;;;9.99;50.29
64841;BME280;51307;52.162;7.560;2023-04-12T04:08:42;99691.72;;;9.90;50.63
64841;BME280;51307;52.162;7.560;2023-04-12T04:11:09;99682.59;;;9.99;50.49
64841;BME280;51307;52.162;7.560;2023-04-12T04:13:36;99686.28;;;9.98;50.63
64841;BME280;51307;52.162;7.560;2023-04-12T04:16:03;99672.81;;;9.91;50.58
64841;BME280;51307;52.162;7.560;2023-04-12T04:18:30;99676.50;;;9.75;51.27
64841;BME280;51307;52.162;7.560;2023-04-12T04:20:56;99663.78;;;9.92;50.92
64841;BME280;51307;52.162;7.560;2023-04-12T04:23:23;99664.88;;;9.83;51.18
64841;BME280;51307;52.162;7.560;2023-04-12T04:25:49;99664.69;;;9.85;51.03
64841;BME280;51307;52.162;7.560;2023-04-12T04:28:15;99658.16;;;9.87;50.91
64841;BME280;51307;52.162;7.560;2023-04-12T04:30:41;99654.88;;;10.00;50.72
64841;BME280;51307;52.162;7.560;2023-04-12T04:33:11;99651.91;;;9.95;51.03
64841;BME280;51307;52.162;7.560;2023-04-12T04:35:38;99642.88;;;9.96;50.94
64841;BME280;51307;52.162;7.560;2023-04-12T04:38:04;99646.28;;;9.90;51.16
64841;BME280;51307;52.162;7.560;2023-04-12T04:40:31;99636.25;;;9.92;51.12
64841;BME280;51307;52.162;7.560;2023-04-12T04:42:57;99623.25;;;10.04;50.96
64841;BME280;51307;52.162;7.560;2023-04-12T04:45:24;99630.16;;;9.98;51.00
64841;BME280;51307;52.162;7.560;2023-04-12T04:47:55;99618.94;;;9.88;51.35
64841;BME280;51307;52.162;7.560;2023-04-12T04:50:23;99628.44;;;9.90;51.57
64841;BME280;51307;52.162;7.560;2023-04-12T04:52:49;99615.59;;;9.86;51.48
64841;BME280;51307;52.162;7.560;2023-04-12T04:55:18;99616.19;;;9.81;51.66
64841;BME280;51307;52.162;7.560;2023-04-12T04:57:46;99605.69;;;9.80;51.96
64841;BME280;51307;52.162;7.560;2023-04-12T05:00:11;99605.31;;;9.83;51.82
64841;BME280;51307;52.162;7.560;2023-04-12T05:02:39;99599.84;;;9.91;51.77
64841;BME280;51307;52.162;7.560;2023-04-12T05:05:10;99598.66;;;9.79;52.35
64841;BME280;51307;52.162;7.560;2023-04-12T05:07:40;99590.56;;;9.87;52.35
64841;BME280;51307;52.162;7.560;2023-04-12T05:10:08;99592.94;;;9.82;52.31
64841;BME280;51307;52.162;7.560;2023-04-12T05:12:34;99592.13;;;9.81;52.46
64841;BME280;51307;52.162;7.560;2023-04-12T05:15:00;99588.38;;;9.75;52.61
64841;BME280;51307;52.162;7.560;2023-04-12T05:17:26;99592.47;;;9.78;52.41
64841;BME280;51307;52.162;7.560;2023-04-12T05:19:52;99588.72;;;9.72;53.00
64841;BME280;51307;52.162;7.560;2023-04-12T05:22:18;99570.69;;;9.74;52.96
64841;BME280;51307;52.162;7.560;2023-04-12T05:24:47;99578.03;;;9.57;53.69
64841;BME280;51307;52.162;7.560;2023-04-12T05:27:13;99569.38;;;9.70;53.59
64841;BME280;51307;52.162;7.560;2023-04-12T05:29:44;99575.97;;;9.30;54.79
64841;BME280;51307;52.162;7.560;2023-04-12T05:32:10;99555.19;;;9.70;53.59
64841;BME280;51307;52.162;7.560;2023-04-12T05:34:35;99554.06;;;9.79;53.50
64841;BME280;51307;52.162;7.560;2023-04-12T05:37:02;99554.56;;;9.68;53.75
64841;BME280;51307;52.162;7.560;2023-04-12T05:39:28;99546.91;;;9.80;53.74
64841;BME280;51307;52.162;7.560;2023-04-12T05:41:54;99553.88;;;9.81;53.67
64841;BME280;51307;52.162;7.560;2023-04-12T05:44:19;99555.09;;;9.63;54.37
64841;BME280;51307;52.162;7.560;2023-04-12T05:46:45;99547.09;;;9.63;54.45
64841;BME280;51307;52.162;7.560;2023-04-12T05:49:11;99549.59;;;9.65;54.86
64841;BME280;51307;52.162;7.560;2023-04-12T05:51:36;99546.38;;;9.54;55.21
64841;BME280;51307;52.162;7.560;2023-04-12T05:54:02;99545.88;;;9.66;54.99
64841;BME280;51307;52.162;7.560;2023-04-12T05:56:30;99533.09;;;9.61;55.54
64841;BME280;51307;52.162;7.560;2023-04-12T05:58:56;99528.66;;;9.68;54.96
64841;BME280;51307;52.162;7.560;2023-04-12T06:01:22;99531.63;;;9.14;57.23
64841;BME280;51307;52.162;7.560;2023-04-12T06:03:59;99529.75;;;8.99;57.12
64841;BME280;51307;52.162;7.560;2023-04-12T06:06:27;99528.88;;;9.52;55.92
64841;BME280;51307;52.162;7.560;2023-04-12T06:08:55;99525.91;;;9.62;55.70
64841;BME280;51307;52.162;7.560;2023-04-12T06:11:24;99513.31;;;9.40;56.81
64841;BME280;51307;52.162;7.560;2023-04-12T06:13:49;99516.34;;;9.52;56.31
64841;BME280;51307;52.162;7.560;2023-04-12T06:16:15;99507.50;;;9.52;56.63
64841;BME280;51307;52.162;7.560;2023-04-12T06:18:41;99517.91;;;9.62;56.50
64841;BME280;51307;52.162;7.560;2023-04-12T06:21:06;99507.03;;;9.63;56.58
64841;BME280;51307;52.162;7.560;2023-04-12T06:23:32;99491.41;;;9.45;57.21
64841;BME280;51307;52.162;7.560;2023-04-12T06:25:57;99492.56;;;9.57;56.95
64841;BME280;51307;52.162;7.560;2023-04-12T06:28:22;99492.78;;;9.56;57.45
64841;BME280;51307;52.162;7.560;2023-04-12T06:30:48;99476.44;;;9.66;57.29
64841;BME280;51307;52.162;7.560;2023-04-12T06:33:13;99476.09;;;9.39;58.35
64841;BME280;51307;52.162;7.560;2023-04-12T06:35:40;99478.50;;;9.49;57.91
64841;BME280;51307;52.162;7.560;2023-04-12T06:38:05;99471.13;;;9.51;58.13
64841;BME280;51307;52.162;7.560;2023-04-12T06:40:31;99462.75;;;9.54;57.88
64841;BME280;51307;52.162;7.560;2023-04-12T06:42:57;99461.09;;;9.53;58.39
64841;BME280;51307;52.162;7.560;2023-04-12T06:45:22;99453.34;;;9.43;58.69
64841;BME280;51307;52.162;7.560;2023-04-12T06:47:48;99459.81;;;9.49;58.49
64841;BME280;51307;52.162;7.560;2023-04-12T06:50:13;99458.81;;;9.35;59.21
64841;BME280;51307;52.162;7.560;2023-04-12T06:52:39;99452.94;;;9.39;59.51
64841;BME280;51307;52.162;7.560;2023-04-12T06:55:05;99441.66;;;9.59;58.85
64841;BME280;51307;52.162;7.560;2023-04-12T06:57:31;99439.84;;;9.45;59.27
64841;BME280;51307;52.162;7.560;2023-04-12T06:59:56;99436.16;;;9.46;59.17
64841;BME280;51307;52.162;7.560;2023-04-12T07:02:22;99429.84;;;8.87;61.20
64841;BME280;51307;52.162;7.560;2023-04-12T07:04:54;99431.19;;;8.83;61.74
64841;BME280;51307;52.162;7.560;2023-04-12T07:07:19;99430.22;;;9.14;61.75
64841;BME280;51307;52.162;7.560;2023-04-12T07:09:45;99424.50;;;9.02;62.85
64841;BME280;51307;52.162;7.560;2023-04-12T07:12:14;99413.06;;;9.08;61.78
64841;BME280;51307;52.162;7.560;2023-04-12T07:14:39;99418.25;;;9.09;61.78
64841;BME280;51307;52.162;7.560;2023-04-12T07:17:05;99402.56;;;9.36;60.65
64841;BME280;51307;52.162;7.560;2023-04-12T07:19:31;99408.13;;;9.56;59.83
64841;BME280;51307;52.162;7.560;2023-04-12T07:21:57;99400.66;;;9.67;59.48
64841;BME280;51307;52.162;7.560;2023-04-12T07:24:22;99394.72;;;9.50;60.24
64841;BME280;51307;52.162;7.560;2023-04-12T07:26:48;99392.03;;;9.50;60.41
64841;BME280;51307;52.162;7.560;2023-04-12T07:29:16;99392.50;;;9.53;60.33
64841;BME280;51307;52.162;7.560;2023-04-12T07:31:42;99388.31;;;9.66;60.11
64841;BME280;51307;52.162;7.560;2023-04-12T07:34:07;99379.88;;;9.62;60.20
64841;BME280;51307;52.162;7.560;2023-04-12T07:36:33;99391.41;;;9.48;60.60
64841;BME280;51307;52.162;7.560;2023-04-12T07:38:58;99381.06;;;9.59;60.47
64841;BME280;51307;52.162;7.560;2023-04-12T07:41:24;99374.28;;;9.57;60.67
64841;BME280;51307;52.162;7.560;2023-04-12T07:43:49;99376.94;;;9.57;60.72
64841;BME280;51307;52.162;7.560;2023-04-12T07:46:15;99369.47;;;9.52;60.91
64841;BME280;51307;52.162;7.560;2023-04-12T07:48:42;99367.06;;;9.57;60.97
64841;BME280;51307;52.162;7.560;2023-04-12T07:51:07;99366.25;;;9.57;61.02
64841;BME280;51307;52.162;7.560;2023-04-12T07:53:33;99358.38;;;9.49;61.60
64841;BME280;51307;52.162;7.560;2023-04-12T07:55:58;99355.69;;;9.49;61.78
64841;BME280;51307;52.162;7.560;2023-04-12T07:58:24;99352.63;;;9.52;61.67
64841;BME280;51307;52.162;7.560;2023-04-12T08:00:52;99355.31;;;9.52;61.80
64841;BME280;51307;52.162;7.560;2023-04-12T08:03:18;99353.97;;;9.63;61.72
64841;BME280;51307;52.162;7.560;2023-04-12T08:05:44;99353.09;;;9.55;61.87
64841;BME280;51307;52.162;7.560;2023-04-12T08:08:10;99358.13;;;9.65;61.75
64841;BME280;51307;52.162;7.560;2023-04-12T08:10:39;99355.44;;;9.65;61.87
64841;BME280;51307;52.162;7.560;2023-04-12T08:13:05;99348.84;;;9.61;61.96
64841;BME280;51307;52.162;7.560;2023-04-12T08:15:31;99344.25;;;9.55;61.76
64841;BME280;51307;52.162;7.560;2023-04-12T08:17:57;99343.56;;;9.68;61.83
64841;BME280;51307;52.162;7.560;2023-04-12T08:20:22;99338.56;;;9.58;62.47
64841;BME280;51307;52.162;7.560;2023-04-12T08:22:48;99330.47;;;9.51;62.18
64841;BME280;51307;52.162;7.560;2023-04-12T08:25:14;99335.41;;;9.54;62.92
64841;BME280;51307;52.162;7.560;2023-04-12T08:27:42;99329.50;;;9.59;62.74
64841;BME280;51307;52.162;7.560;2023-04-12T08:30:09;99333.81;;;9.60;62.66
64841;BME280;51307;52.162;7.560;2023-04-12T08:32:38;99337.78;;;9.64;62.65
64841;BME280;51307;52.162;7.560;2023-04-12T08:35:04;99327.88;;;9.58;62.55
64841;BME280;51307;52.162;7.560;2023-04-12T08:37:30;99332.94;;;9.53;62.32
64841;BME280;51307;52.162;7.560;2023-04-12T08:39:58;99329.19;;;9.69;62.43
64841;BME280;51307;52.162;7.560;2023-04-12T08:42:25;99323.03;;;9.68;62.70
64841;BME280;51307;52.162;7.560;2023-04-12T08:44:50;99321.28;;;9.60;62.81
64841;BME280;51307;52.162;7.560;2023-04-12T08:47:18;99320.47;;;9.60;62.93
64841;BME280;51307;52.162;7.560;2023-04-12T08:49:44;99324.41;;;9.64;62.74
64841;BME280;51307;52.162;7.560;2023-04-12T08:52:10;99315.81;;;9.11;64.44
64841;BME280;51307;52.162;7.560;2023-04-12T08:54:36;99314.06;;;9.18;64.89
64841;BME280;51307;52.162;7.560;2023-04-12T08:57:04;99318.22;;;9.20;65.35
64841;BME280;51307;52.162;7.560;2023-04-12T08:59:32;99307.00;;;9.10;65.76
64841;BME280;51307;52.162;7.560;2023-04-12T09:02:01;99306.44;;;9.15;65.93
64841;BME280;51307;52.162;7.560;2023-04-12T09:04:26;99291.97;;;9.24;65.88
64841;BME280;51307;52.162;7.560;2023-04-12T09:06:52;99294.63;;;9.24;66.36
64841;BME280;51307;52.162;7.560;2023-04-12T09:09:17;99299.63;;;9.27;66.10
64841;BME280;51307;52.162;7.560;2023-04-12T09:11:43;99290.19;;;9.09;66.73
64841;BME280;51307;52.162;7.560;2023-04-12T09:14:20;99290.22;;;9.31;65.68
64841;BME280;51307;52.162;7.560;2023-04-12T09:16:46;99300.88;;;9.31;66.30
64841;BME280;51307;52.162;7.560;2023-04-12T09:19:12;99300.53;;;9.19;66.67
64841;BME280;51307;52.162;7.560;2023-04-12T09:21:51;99296.16;;;9.33;65.87
64841;BME280;51307;52.162;7.560;2023-04-12T09:24:17;99288.16;;;9.33;66.07
64841;BME280;51307;52.162;7.560;2023-04-12T09:26:43;99282.06;;;9.39;65.76
64841;BME280;51307;52.162;7.560;2023-04-12T09:29:23;99281.97;;;9.98;63.87
64841;BME280;51307;52.162;7.560;2023-04-12T09:31:58;99278.97;;;10.07;63.63
64841;BME280;51307;52.162;7.560;2023-04-12T09:34:24;99291.34;;;9.87;64.42
64841;BME280;51307;52.162;7.560;2023-04-12T09:36:50;99292.22;;;9.94;64.08
64841;BME280;51307;52.162;7.560;2023-04-12T09:39:15;99283.50;;;10.07;63.97
64841;BME280;51307;52.162;7.560;2023-04-12T09:41:41;99288.03;;;10.06;63.83
64841;BME280;51307;52.162;7.560;2023-04-12T09:44:06;99288.03;;;10.06;64.10
64841;BME280;51307;52.162;7.560;2023-04-12T09:46:32;99284.94;;;10.09;64.28
64841;BME280;51307;52.162;7.560;2023-04-12T09:48:59;99286.38;;;10.05;64.05
64841;BME280;51307;52.162;7.560;2023-04-12T09:51:32;99275.13;;;10.17;64.16
64841;BME280;51307;52.162;7.560;2023-04-12T09:54:05;99276.53;;;10.13;64.65
64841;BME280;51307;52.162;7.560;2023-04-12T09:56:32;99271.63;;;10.16;64.63
64841;BME280;51307;52.162;7.560;2023-04-12T09:59:02;99268.53;;;10.13;64.63
64841;BME280;51307;52.162;7.560;2023-04-12T10:01:33;99268.75;;;10.18;64.88
64841;BME280;51307;52.162;7.560;2023-04-12T10:04:01;99268.56;;;10.19;65.09
64841;BME280;51307;52.162;7.560;2023-04-12T10:06:27;99277.66;;;10.25;65.11
64841;BME280;51307;52.162;7.560;2023-04-12T10:08:53;99276.81;;;10.24;64.77
64841;BME280;51307;52.162;7.560;2023-04-12T10:11:19;99270.22;;;10.20;65.07
64841;BME280;51307;52.162;7.560;2023-04-12T10:13:47;99264.53;;;10.30;64.58
64841;BME280;51307;52.162;7.560;2023-04-12T10:16:13;99268.81;;;10.24;65.01
64841;BME280;51307;52.162;7.560;2023-04-12T10:18:41;99266.19;;;10.03;65.68
64841;BME280;51307;52.162;7.560;2023-04-12T10:21:08;99266.34;;;10.23;65.01
64841;BME280;51307;52.162;7.560;2023-04-12T10:23:34;99266.50;;;10.15;65.01
64841;BME280;51307;52.162;7.560;2023-04-12T10:26:02;99267.34;;;10.22;64.83
64841;BME280;51307;52.162;7.560;2023-04-12T10:28:29;99263.72;;;10.30;64.77
64841;BME280;51307;52.162;7.560;2023-04-12T10:30:58;99257.06;;;10.19;64.96
64841;BME280;51307;52.162;7.560;2023-04-12T10:33:28;99244.34;;;10.27;64.76
64841;BME280;51307;52.162;7.560;2023-04-12T10:36:00;99254.19;;;10.20;65.17
64841;BME280;51307;52.162;7.560;2023-04-12T10:38:29;99246.63;;;10.24;65.44
64841;BME280;51307;52.162;7.560;2023-04-12T10:41:17;99236.56;;;10.33;65.10
64841;BME280;51307;52.162;7.560;2023-04-12T10:43:47;99235.47;;;10.49;64.82
64841;BME280;51307;52.162;7.560;2023-04-12T10:49:14;99239.91;;;10.76;65.61
64841;BME280;51307;52.162;7.560;2023-04-12T10:56:51;99227.44;;;11.04;64.36
64841;BME280;51307;52.162;7.560;2023-04-12T10:59:17;99229.91;;;11.05;64.47
64841;BME280;51307;52.162;7.560;2023-04-12T11:02:09;99228.91;;;11.06;65.03
64841;BME280;51307;52.162;7.560;2023-04-12T11:04:36;99229.94;;;11.19;64.10
64841;BME280;51307;52.162;7.560;2023-04-12T11:07:06;99223.34;;;11.08;63.76
64841;BME280;51307;52.162;7.560;2023-04-12T11:09:43;99227.81;;;10.87;64.02
64841;BME280;51307;52.162;7.560;2023-04-12T11:12:12;99225.34;;;10.92;63.02
64841;BME280;51307;52.162;7.560;2023-04-12T11:19:42;99232.00;;;10.62;63.58
64841;BME280;51307;52.162;7.560;2023-04-12T11:22:13;99213.91;;;10.57;63.82
64841;BME280;51307;52.162;7.560;2023-04-12T11:24:41;99229.47;;;10.95;63.13
64841;BME280;51307;52.162;7.560;2023-04-12T11:27:08;99225.31;;;10.86;63.20
64841;BME280;51307;52.162;7.560;2023-04-12T11:29:34;99224.47;;;10.79;63.52
64841;BME280;51307;52.162;7.560;2023-04-12T11:32:04;99218.41;;;10.50;63.76
64841;BME280;51307;52.162;7.560;2023-04-12T11:34:36;99224.59;;;10.57;63.89
64841;BME280;51307;52.162;7.560;2023-04-12T11:37:02;99222.97;;;10.63;64.36
64841;BME280;51307;52.162;7.560;2023-04-12T11:39:33;99225.13;;;10.87;64.22
64841;BME280;51307;52.162;7.560;2023-04-12T11:41:59;99222.44;;;10.81;63.82
64841;BME280;51307;52.162;7.560;2023-04-12T11:44:27;99223.31;;;11.01;64.11
64841;BME280;51307;52.162;7.560;2023-04-12T11:46:53;99222.63;;;10.86;64.85
64841;BME280;51307;52.162;7.560;2023-04-12T11:49:21;99216.94;;;10.96;63.93
64841;BME280;51307;52.162;7.560;2023-04-12T11:51:47;99225.75;;;10.89;64.41
64841;BME280;51307;52.162;7.560;2023-04-12T11:54:13;99223.91;;;10.90;64.76
64841;BME280;51307;52.162;7.560;2023-04-12T11:56:40;99222.75;;;10.64;65.51
64841;BME280;51307;52.162;7.560;2023-04-12T11:59:06;99229.25;;;10.90;64.89
64841;BME280;51307;52.162;7.560;2023-04-12T12:01:35;99230.59;;;10.59;65.21
64841;BME280;51307;52.162;7.560;2023-04-12T12:04:03;99234.25;;;10.51;63.43
64841;BME280;51307;52.162;7.560;2023-04-12T12:06:29;99230.13;;;10.49;61.73
64841;BME280;51307;52.162;7.560;2023-04-12T12:08:55;99224.44;;;10.72;60.82
64841;BME280;51307;52.162;7.560;2023-04-12T12:11:22;99222.81;;;10.36;59.57
64841;BME280;51307;52.162;7.560;2023-04-12T12:13:49;99221.69;;;10.52;59.04
64841;BME280;51307;52.162;7.560;2023-04-12T12:16:16;99222.72;;;10.57;59.29
64841;BME280;51307;52.162;7.560;2023-04-12T12:18:44;99218.41;;;10.50;58.11
64841;BME280;51307;52.162;7.560;2023-04-12T12:21:12;99221.34;;;10.68;58.55
64841;BME280;51307;52.162;7.560;2023-04-12T12:23:40;99216.56;;;10.57;60.22
64841;BME280;51307;52.162;7.560;2023-04-12T12:26:06;99214.22;;;10.82;59.06
64841;BME280;51307;52.162;7.560;2023-04-12T12:28:38;99215.03;;;10.89;58.44
64841;BME280;51307;52.162;7.560;2023-04-12T12:31:05;99214.03;;;10.90;57.27
64841;BME280;51307;52.162;7.560;2023-04-12T12:33:41;99217.81;;;10.61;56.36
64841;BME280;51307;52.162;7.560;2023-04-12T12:36:07;99215.28;;;11.01;56.62
64841;BME280;51307;52.162;7.560;2023-04-12T12:38:37;99216.25;;;10.87;58.56
64841;BME280;51307;52.162;7.560;2023-04-12T12:43:48;99217.28;;;10.79;57.22
64841;BME280;51307;52.162;7.560;2023-04-12T12:46:18;99225.56;;;10.98;57.50
64841;BME280;51307;52.162;7.560;2023-04-12T12:48:45;99227.84;;;10.94;57.98
64841;BME280;51307;52.162;7.560;2023-04-12T12:51:13;99230.09;;;10.97;58.38
64841;BME280;51307;52.162;7.560;2023-04-12T12:53:39;99224.53;;;10.99;58.18
64841;BME280;51307;52.162;7.560;2023-04-12T12:56:07;99220.28;;;11.24;57.55
64841;BME280;51307;52.162;7.560;2023-04-12T12:58:41;99223.25;;;10.81;57.22
64841;BME280;51307;52.162;7.560;2023-04-12T13:01:07;99225.78;;;10.96;56.64
64841;BME280;51307;52.162;7.560;2023-04-12T13:03:35;99216.75;;;11.10;55.75
64841;BME280;51307;52.162;7.560;2023-04-12T13:06:01;99212.69;;;11.41;56.78
64841;BME280;51307;52.162;7.560;2023-04-12T13:08:27;99206.50;;;11.48;56.62
64841;BME280;51307;52.162;7.560;2023-04-12T13:10:53;99202.19;;;11.73;56.85
64841;BME280;51307;52.162;7.560;2023-04-12T13:13:19;99190.41;;;11.81;59.39
64841;BME280;51307;52.162;7.560;2023-04-12T13:15:45;99194.34;;;11.92;56.72
64841;BME280;51307;52.162;7.560;2023-04-12T13:18:12;99193.50;;;12.11;56.84
64841;BME280;51307;52.162;7.560;2023-04-12T13:20:41;99194.91;;;12.34;57.44
64841;BME280;51307;52.162;7.560;2023-04-12T13:23:07;99194.84;;;12.48;54.60
64841;BME280;51307;52.162;7.560;2023-04-12T13:25:33;99185.31;;;12.58;55.31
64841;BME280;51307;52.162;7.560;2023-04-12T13:27:58;99184.88;;;12.61;55.42